Dyer, Tennessee
Current Conditions -  °F | °C
As of 10:55 AM on Thursday 27 Nov 2014 (Local Time) from KUCY Reporting Station
Overcast Overcast  
Wind Chill: 24°   Ceiling: 2600
Heat Index: 34°   Visibility: 10mi
Dew Point: 27°   Wind: 16mph
Humidity: 75%   Direction: 350°N
Pressure: 30.48"   Gusts: NA
Location:  36.07°N, 88.99°W
Report Text: KUCY 271655Z AUTO 35014KT 10SM OVC026 01/M03 A3048 RMK
Loading
Personal Weather Stations






























Interactive Weather Map New forecast layout! Learn more

10-Day Weather Forecast

Advertisements
Track Severe Weather on mobile